Relevés horaires St-Hubert (Belgique)


Relevés horaires à St-Hubert - Mercredi 16 Juin 2021
Heure UTC1 Température [°C] Vent [km/h] Hum. [%] Pres.4 [hPa] Visi. [Km] Nébu. [octa] Préc.5 [mm] Cond.
2m. Res. Ros. Dir.2 Vit. Moy. Raf.3
23:00 21.3 21.3 12.8 SE 5.6 5.6 9.3 58 1011.3(-0.5/3h) 45 0/8 -- --
22:00 20.0 20.0 13.5 SE 5.6 5.6 7.4 66 1012.2(0.2/3h) 45 0/8 -- --
21:00 20.4 20.4 13.4 SE 3.7 3.7 5.6 64 1012.3(-0.1/3h) 40 0/8 -- --
20:00 22.1 22.1 13.4 SE 1.9 3.7 5.6 58 1011.7(0.2/3h) 45 0/8 -- --
19:00 24.2 24.2 14.3 S 1.9 3.7 5.6 54 1011.1(-0.5/3h) 40 0/8 -- --
18:00 25.1 25.1 13.9 S 3.7 7.4 13.0 50 1011.1(-0.6/3h) 40 0/8 0/12h
--
17:00 26.1 26.1 13.3 S 5.6 5.6 11.1 45 1011(-0.6/3h) 35 0/8 -- --
16:00 25.5 25.5 13.0 SSO 3.7 5.6 11.1 46 1011.4(-0.6/3h) 35 0/8 -- --
15:00 26.7 26.7 14.5 S 5.6 7.4 13.0 47 1011.4(-0.9/3h) 30 0/8 -- --
14:00 26.2 26.2 13.3 S 5.6 5.6 11.1 45 1011.6(-1.1/3h) 30 0/8 -- --
13:00 25.7 25.7 15.6 SSE 3.7 7.4 13.0 54 1012(-0.9/3h) 30 1/8 -- --
12:00 25.4 25.4 14.8 S 7.4 7.4 13.0 52 1012.6(-0.5/3h) 35 0/8 0/6h
--
11:00 24.7 24.7 14.7 SSO 5.6 7.4 13.0 54 1013.1(-0.3/3h) 35 4/8 -- --
10:00 23.7 23.7 14.7 SSO 5.6 5.6 11.1 57 1013.3(-0.3/3h) 29 0/8 -- --
09:00 22.7 22.7 15.0 S 5.6 5.6 9.3 62 1013.7(-0.4/3h) 25 0/8 -- --
08:00 21.9 21.9 15.8 S 3.7 5.6 9.3 68 1013.9(-0.3/3h) 24 0/8 -- --
07:00 20.1 20.1 14.6 SSE 5.6 5.6 9.3 71 1014.4(-0.6/3h) 24 0/8 -- --
06:00 18.5 18.5 13.8 SE 5.6 9.3 14.8 74 1015(-0.6/3h) 30 0/8 0/12h
--
05:00 17.2 17.2 13.2 ESE 7.4 9.3 14.8 77 1015.4(-1.0/3h) 29 0/8 -- --
04:00 15.4 15.2 12.7 ESE 9.3 9.3 13.0 84 1016.2(-0.9/3h) 28 0/8 -- --
03:00 15.1 15.1 11.4 E 7.4 9.3 11.1 79 1016.5(-1.1/3h) 30 0/8 -- --
02:00 14.5 14.4 11.9 E 7.4 9.3 11.1 84 1017.1(-1.0/3h) 29 0/8 -- --
01:00 15.2 15.2 12.2 E 7.4 7.4 11.1 82 1017.2(-1.1/3h) 28 0/8 -- --
00:00 16.0 16.0 12.7 ENE 7.4 9.3 11.1 81 1017.5(-1.0/3h) 29 0/8 0/6h
0/24h
--

1 Coordinated Universal Time. Actuellement il est 13:00 locale et 11:00 UTC.

2 Le vent souffle depuis la direction indiquée vers la direction oposée.

3 Les rafales max. sont disponible 40 min après l'heure du relevé.

4 Pour les stations d'altitude (plus de 600m) le géopotentiel du niveau le plus proche de la pression obligatoire est indiqué.

5 Les stations disposant d'un diffuseur peuvent indiquer "trace". Cela signifie que des précipitations ont touchés le sol mais que la quantité est inférieure à 0.1 mm.

Récapitulatif de la journée
Température [°C] Vent [km/h] Ensoleillement4 [h] Precipitations totale5 [mm] Pression [Hpa]
Min1 Max.2 Moy.3 Max. Min Max.
14.4 26.9 6.7 14.8 0 h 0 min 0 1011.0 1017.5

1 Température minimale relevée entre 18:00 UTC la veille et 18:00 UTC le jour donné.

2 Température maximale relevée entre 06:00 UTC le jour donné et 06:00 UTC le lendemain.

3 Vent moyen de la journée basé sur les relevés horaires.

4 Ensoleillement en heures relevé entre 06:00 UTC la veille et 06:00 UTC le jour donné.

5 Précipitations totales tombées entre 06:00 UTC la jour donné et 06:00 UTC le lendemain.

Graphiques horaires